Time;durP1;ratioP1;P1;durP2;ratioP2;P2;SDS_P1;SDS_P2;PMS_P1;PMS_P2;Temp;Humidity;BMP_temperature;BMP_pressure;BME280_temperature;BME280_humidity;BME280_pressure;Samples;Min_cycle;Max_cycle;Signal;HPM_P1;HPM_P2
2023/01/31 00:01:24;;;;;;;1999.90;999.90;;;3.20;99.90;;;;;;5035868;28;20815;-79
2023/01/31 00:03:59;;;;;;;1999.90;999.90;;;3.30;99.90;;;;;;5034127;28;20049;-78
2023/01/31 00:06:34;;;;;;;1999.90;999.90;;;3.20;99.90;;;;;;5034010;28;20034;-78
2023/01/31 00:09:01;;;;;;;1999.90;999.90;;;3.30;99.90;;;;;;5035909;28;20034;-78
2023/01/31 00:11:28;;;;;;;1999.90;999.90;;;3.10;99.90;;;;;;5035513;28;20041;-79
2023/01/31 00:13:54;;;;;;;1999.90;999.90;;;3.10;99.90;;;;;;5035709;28;20558;-78
2023/01/31 00:16:21;;;;;;;1999.90;999.90;;;2.90;99.90;;;;;;5035022;28;20030;-78
2023/01/31 00:18:47;;;;;;;1999.90;999.90;;;2.70;99.90;;;;;;5034206;28;20038;-78
2023/01/31 00:21:16;;;;;;;1999.90;999.90;;;2.70;99.90;;;;;;5035528;28;20034;-78
2023/01/31 00:23:42;;;;;;;1999.90;999.90;;;2.60;99.90;;;;;;5035334;28;20412;-78
2023/01/31 00:26:18;;;;;;;1999.90;999.90;;;2.60;99.90;;;;;;5035333;28;20038;-78
2023/01/31 00:28:46;;;;;;;1999.90;999.90;;;2.60;99.90;;;;;;5035340;28;20238;-78
2023/01/31 00:31:13;;;;;;;1999.90;999.90;;;2.50;99.90;;;;;;5035487;28;20037;-78
2023/01/31 00:33:41;;;;;;;1999.90;999.90;;;2.50;99.90;;;;;;5036649;28;20038;-78
2023/01/31 00:36:12;;;;;;;1999.90;999.90;;;2.50;99.90;;;;;;5042968;28;20599;-78
2023/01/31 00:38:38;;;;;;;1999.90;999.90;;;2.40;99.90;;;;;;5040210;28;20085;-78
2023/01/31 00:41:04;;;;;;;1999.90;999.90;;;2.50;99.90;;;;;;5036879;28;20427;-78
2023/01/31 00:43:31;;;;;;;1999.90;999.90;;;2.60;99.90;;;;;;5035100;28;20076;-78
2023/01/31 00:45:57;;;;;;;1999.90;999.90;;;2.60;99.90;;;;;;5035135;28;20030;-78
2023/01/31 00:48:22;;;;;;;1999.90;999.90;;;2.70;99.90;;;;;;5035279;28;20042;-79
2023/01/31 00:50:48;;;;;;;1999.90;999.90;;;2.70;99.90;;;;;;5033529;28;20507;-78
2023/01/31 00:53:13;;;;;;;1999.90;999.90;;;2.60;99.90;;;;;;5033642;28;20495;-78
2023/01/31 00:55:39;;;;;;;1999.90;999.90;;;2.60;99.90;;;;;;5033134;28;20117;-78
2023/01/31 00:58:05;;;;;;;1999.90;999.90;;;2.70;99.90;;;;;;5035190;28;20117;-79
2023/01/31 01:00:31;;;;;;;1999.90;999.90;;;2.70;99.90;;;;;;5034783;28;20381;-78
2023/01/31 01:02:56;;;;;;;1999.90;999.90;;;2.70;99.90;;;;;;5034969;28;20042;-78
2023/01/31 01:05:22;;;;;;;1999.90;999.90;;;2.70;99.90;;;;;;5034555;28;20036;-78
2023/01/31 01:07:48;;;;;;;1999.90;999.90;;;2.70;99.90;;;;;;5035165;28;20105;-78
2023/01/31 01:10:13;;;;;;;1999.90;999.90;;;2.60;99.90;;;;;;5037444;28;20053;-77
2023/01/31 01:12:39;;;;;;;1999.90;999.90;;;2.60;99.90;;;;;;5046052;28;20049;-79
2023/01/31 01:15:05;;;;;;;1999.90;999.90;;;2.60;99.90;;;;;;5038571;28;20040;-78
2023/01/31 01:17:30;;;;;;;1999.90;999.90;;;2.50;99.90;;;;;;5037082;28;20038;-78
2023/01/31 01:19:56;;;;;;;1999.90;999.90;;;2.50;99.90;;;;;;5035871;28;20418;-78
2023/01/31 01:22:22;;;;;;;1999.90;999.90;;;2.50;99.90;;;;;;5036670;28;20380;-78
2023/01/31 01:24:47;;;;;;;1999.90;999.90;;;2.50;99.90;;;;;;5036682;28;20025;-78
2023/01/31 01:27:13;;;;;;;1999.90;999.90;;;2.50;99.90;;;;;;5036492;28;20034;-78
2023/01/31 01:29:38;;;;;;;1999.90;999.90;;;2.50;99.90;;;;;;5038027;28;20787;-78
2023/01/31 01:32:05;;;;;;;1999.90;999.90;;;2.50;99.90;;;;;;5038267;28;20117;-78
2023/01/31 01:34:33;;;;;;;1999.90;999.90;;;2.50;99.90;;;;;;5036809;28;20040;-77
2023/01/31 01:36:58;;;;;;;1999.90;999.90;;;2.50;99.90;;;;;;5036783;28;20113;-78
2023/01/31 01:39:24;;;;;;;1999.90;999.90;;;2.50;99.90;;;;;;5039033;28;20528;-78
2023/01/31 01:41:50;;;;;;;1999.90;999.90;;;2.50;99.90;;;;;;5036460;28;20095;-77
2023/01/31 01:44:43;;;;;;;1999.90;999.90;;;2.50;99.90;;;;;;5037148;28;20084;-78
2023/01/31 01:47:33;;;;;;;1999.90;999.90;;;2.40;99.90;;;;;;5039030;28;20029;-78
2023/01/31 01:50:32;;;;;;;1999.90;999.90;;;2.50;99.90;;;;;;5038883;28;20030;-77
2023/01/31 01:53:09;;;;;;;1999.90;999.90;;;2.50;99.90;;;;;;5038865;28;20530;-78
2023/01/31 01:55:49;;;;;;;1999.90;999.90;;;2.50;99.90;;;;;;5039932;28;20034;-78
2023/01/31 01:58:24;;;;;;;1999.90;999.90;;;2.40;99.90;;;;;;5040482;28;20041;-78
2023/01/31 02:00:50;;;;;;;1999.90;999.90;;;2.40;99.90;;;;;;5036294;28;20034;-78
2023/01/31 02:03:16;;;;;;;1999.90;999.90;;;2.40;99.90;;;;;;5035997;28;20142;-78
2023/01/31 02:05:54;;;;;;;1999.90;999.90;;;2.40;99.90;;;;;;5035272;28;20124;-78
2023/01/31 02:08:22;;;;;;;1999.90;999.90;;;2.40;99.90;;;;;;5039120;28;20044;-78
2023/01/31 02:11:13;;;;;;;1999.90;999.90;;;2.50;99.90;;;;;;5039095;28;20072;-78
2023/01/31 02:13:40;;;;;;;1999.90;999.90;;;2.50;99.90;;;;;;5039413;28;20034;-77
2023/01/31 02:16:06;;;;;;;1999.90;999.90;;;2.50;99.90;;;;;;5037314;28;20037;-78
2023/01/31 02:18:31;;;;;;;1999.90;999.90;;;2.60;99.90;;;;;;5037569;28;20053;-78
2023/01/31 02:21:25;;;;;;;1999.90;999.90;;;2.40;99.90;;;;;;5039389;28;20507;-78
2023/01/31 02:24:09;;;;;;;1999.90;999.90;;;2.50;99.90;;;;;;5037429;28;20038;-78
2023/01/31 02:26:56;;;;;;;1999.90;999.90;;;2.60;99.90;;;;;;5039048;28;20034;-78
2023/01/31 02:29:49;;;;;;;1999.90;999.90;;;2.50;99.90;;;;;;5039151;28;20033;-78
2023/01/31 02:32:14;;;;;;;1999.90;999.90;;;2.60;99.90;;;;;;5039910;28;20034;-78
2023/01/31 02:34:55;;;;;;;1999.90;999.90;;;2.60;99.90;;;;;;5039536;28;20045;-78
2023/01/31 02:37:43;;;;;;;1999.90;999.90;;;2.60;99.90;;;;;;5039787;28;20116;-78
2023/01/31 02:40:39;;;;;;;1999.90;999.90;;;2.60;99.90;;;;;;5039321;28;20036;-78
2023/01/31 02:44:57;;;;;;;1999.90;999.90;;;2.60;99.90;;;;;;5020007;28;20519;-78
2023/01/31 02:46:25;;;;;;;1999.90;999.90;;;2.70;99.90;;;;;;5035182;28;20093;-78
2023/01/31 02:49:11;;;;;;;1999.90;999.90;;;2.70;99.90;;;;;;5023968;28;20037;-78
2023/01/31 02:52:14;;;;;;;1999.90;999.90;;;2.70;99.90;;;;;;5039422;28;20092;-78
2023/01/31 02:56:13;;;;;;;1999.90;999.90;;;2.70;99.90;;;;;;5039165;28;20034;-78
2023/01/31 02:57:18;;;;;;;1999.90;999.90;;;2.70;99.90;;;;;;5038829;28;20038;-78
2023/01/31 02:59:44;;;;;;;1999.90;999.90;;;2.80;99.90;;;;;;5039405;28;20380;-78
2023/01/31 03:02:11;;;;;;;1999.90;999.90;;;2.70;99.90;;;;;;5039312;28;20038;-78
2023/01/31 03:04:37;;;;;;;1999.90;999.90;;;2.70;99.90;;;;;;5038794;28;20121;-77
2023/01/31 03:07:12;;;;;;;1999.90;999.90;;;2.70;99.90;;;;;;5037131;28;20057;-78
2023/01/31 03:09:59;;;;;;;1999.90;999.90;;;2.70;99.90;;;;;;5036166;28;20037;-78
2023/01/31 03:12:34;;;;;;;1999.90;999.90;;;2.80;99.90;;;;;;5038844;28;20487;-78
2023/01/31 03:15:03;;;;;;;1999.90;999.90;;;2.70;99.90;;;;;;5038171;28;20033;-77
2023/01/31 03:18:05;;;;;;;1999.90;999.90;;;2.70;99.90;;;;;;5038723;28;20034;-78
2023/01/31 03:20:43;;;;;;;1999.90;999.90;;;2.70;99.90;;;;;;5038989;28;20088;-78
2023/01/31 03:23:16;;;;;;;1999.90;999.90;;;2.70;99.90;;;;;;5037499;28;20574;-78
2023/01/31 03:25:43;;;;;;;1999.90;999.90;;;2.70;99.90;;;;;;5038389;28;20041;-78
2023/01/31 03:28:14;;;;;;;1999.90;999.90;;;2.60;99.90;;;;;;5038893;28;20029;-78
2023/01/31 03:31:13;;;;;;;1999.90;999.90;;;2.60;99.90;;;;;;5040080;28;20123;-78
2023/01/31 03:33:43;;;;;;;1999.90;999.90;;;2.50;99.90;;;;;;5016717;28;20046;-78
2023/01/31 03:36:27;;;;;;;1999.90;999.90;;;2.40;99.90;;;;;;5038904;28;20462;-78
2023/01/31 03:39:14;;;;;;;1999.90;999.90;;;2.40;99.90;;;;;;5039918;28;20117;-78
2023/01/31 03:41:52;;;;;;;1999.90;999.90;;;2.30;99.90;;;;;;5038298;28;20025;-78
2023/01/31 03:44:29;;;;;;;1999.90;999.90;;;2.10;99.90;;;;;;5037713;28;20048;-78
2023/01/31 03:47:08;;;;;;;1999.90;999.90;;;2.10;99.90;;;;;;5038945;28;20813;-78
2023/01/31 03:49:38;;;;;;;1999.90;999.90;;;2.10;99.90;;;;;;5037276;28;20069;-77
2023/01/31 03:52:06;;;;;;;1999.90;999.90;;;2.10;99.90;;;;;;5039664;28;20440;-78
2023/01/31 03:54:38;;;;;;;1999.90;999.90;;;2.00;99.90;;;;;;5039267;28;20031;-78
2023/01/31 03:57:21;;;;;;;1999.90;999.90;;;2.00;99.90;;;;;;5037805;28;20036;-78
2023/01/31 03:59:52;;;;;;;1999.90;999.90;;;2.00;99.90;;;;;;5039920;28;20050;-77
2023/01/31 04:02:22;;;;;;;1999.90;999.90;;;2.00;99.90;;;;;;5039689;28;20033;-78
2023/01/31 04:04:54;;;;;;;1999.90;999.90;;;2.10;99.90;;;;;;5040309;28;20487;-78
2023/01/31 04:07:21;;;;;;;1999.90;999.90;;;2.10;99.90;;;;;;5044107;28;20049;-77
2023/01/31 04:09:46;;;;;;;1999.90;999.90;;;2.10;99.90;;;;;;5047368;28;20042;-77
2023/01/31 04:12:14;;;;;;;1999.90;999.90;;;2.20;99.90;;;;;;5048786;28;20384;-77
2023/01/31 04:14:40;;;;;;;1999.90;999.90;;;2.20;99.90;;;;;;5043485;28;20026;-78
2023/01/31 04:17:06;;;;;;;1999.90;999.90;;;2.20;99.90;;;;;;5040455;28;20059;-78
2023/01/31 04:19:31;;;;;;;1999.90;999.90;;;2.20;99.90;;;;;;5040661;28;20480;-78
2023/01/31 04:21:57;;;;;;;1999.90;999.90;;;2.20;99.90;;;;;;5038379;28;20415;-78
2023/01/31 04:24:22;;;;;;;1999.90;999.90;;;2.30;99.90;;;;;;5037977;28;20399;-78
2023/01/31 04:26:48;;;;;;;1999.90;999.90;;;2.30;99.90;;;;;;5037894;28;20038;-78
2023/01/31 04:29:13;;;;;;;1999.90;999.90;;;2.30;99.90;;;;;;5035683;28;20068;-78
2023/01/31 04:31:40;;;;;;;1999.90;999.90;;;2.30;99.90;;;;;;5038224;28;20042;-78
2023/01/31 04:34:06;;;;;;;1999.90;999.90;;;2.30;99.90;;;;;;5037827;28;20066;-78
2023/01/31 04:36:31;;;;;;;1999.90;999.90;;;2.20;99.90;;;;;;5037739;28;20408;-78
2023/01/31 04:38:57;;;;;;;1999.90;999.90;;;2.20;99.90;;;;;;5037645;28;20046;-78
2023/01/31 04:41:22;;;;;;;1999.90;999.90;;;2.10;99.90;;;;;;5036143;28;20057;-78
2023/01/31 04:43:48;;;;;;;1999.90;999.90;;;2.10;99.90;;;;;;5037506;28;20544;-78
2023/01/31 04:46:14;;;;;;;1999.90;999.90;;;2.00;99.90;;;;;;5035480;28;20113;-78
2023/01/31 04:48:40;;;;;;;1999.90;999.90;;;2.10;99.90;;;;;;5035815;28;20038;-78
2023/01/31 04:51:06;;;;;;;1999.90;999.90;;;2.00;99.90;;;;;;5035539;28;20053;-78
2023/01/31 04:53:31;;;;;;;1999.90;999.90;;;2.00;99.90;;;;;;5036792;28;20488;-79
2023/01/31 04:55:57;;;;;;;1999.90;999.90;;;2.00;99.90;;;;;;5036062;28;20493;-78
2023/01/31 04:58:22;;;;;;;1999.90;999.90;;;2.00;99.90;;;;;;5035824;28;20069;-78
2023/01/31 05:00:48;;;;;;;1999.90;999.90;;;1.90;99.90;;;;;;5036199;28;20034;-77
2023/01/31 05:03:13;;;;;;;1999.90;999.90;;;1.90;99.90;;;;;;5036817;28;20045;-77
2023/01/31 05:05:39;;;;;;;1999.90;999.90;;;1.90;99.90;;;;;;5035798;28;20112;-78
2023/01/31 05:08:05;;;;;;;1999.90;999.90;;;1.80;99.90;;;;;;5036105;28;20037;-78
2023/01/31 05:10:30;;;;;;;1999.90;999.90;;;1.70;99.90;;;;;;5036517;28;20038;-78
2023/01/31 05:12:56;;;;;;;1999.90;999.90;;;1.60;99.90;;;;;;5035176;28;20092;-78
2023/01/31 05:15:21;;;;;;;1999.90;999.90;;;1.50;99.90;;;;;;5034963;28;20034;-78
2023/01/31 05:17:52;;;;;;;1999.90;999.90;;;1.50;99.90;;;;;;5034631;28;20041;-78
2023/01/31 05:20:17;;;;;;;1999.90;999.90;;;1.40;99.90;;;;;;5036506;28;20034;-77
2023/01/31 05:22:47;;;;;;;1999.90;999.90;;;1.30;99.90;;;;;;5036388;28;20046;-78
2023/01/31 05:25:12;;;;;;;1999.90;999.90;;;1.20;99.90;;;;;;5036218;28;20116;-78
2023/01/31 05:27:38;;;;;;;1999.90;999.90;;;1.10;99.90;;;;;;5036815;28;20535;-77
2023/01/31 05:30:04;;;;;;;1999.90;999.90;;;1.00;99.90;;;;;;5036239;28;20025;-78
2023/01/31 05:32:30;;;;;;;1999.90;999.90;;;0.90;99.90;;;;;;5035515;28;20061;-78
2023/01/31 05:34:55;;;;;;;1999.90;999.90;;;0.90;99.90;;;;;;5038376;28;20068;-78
2023/01/31 05:37:21;;;;;;;1999.90;999.90;;;0.90;99.90;;;;;;5035189;28;20034;-77
2023/01/31 05:39:46;;;;;;;1999.90;999.90;;;0.80;99.90;;;;;;5035513;28;20029;-78
2023/01/31 05:42:12;;;;;;;1999.90;999.90;;;0.80;99.90;;;;;;5033040;28;20034;-78
2023/01/31 05:44:37;;;;;;;1999.90;999.90;;;0.90;99.90;;;;;;5035112;28;20373;-78
2023/01/31 05:47:03;;;;;;;1999.90;999.90;;;0.90;99.90;;;;;;5035870;28;20038;-78
2023/01/31 05:49:32;;;;;;;1999.90;999.90;;;0.90;99.90;;;;;;5033451;28;20045;-78
2023/01/31 05:51:58;;;;;;;1999.90;999.90;;;0.90;99.90;;;;;;5035365;28;20400;-78
2023/01/31 05:54:24;;;;;;;1999.90;999.90;;;1.00;99.90;;;;;;5034935;28;20034;-77
2023/01/31 05:56:49;;;;;;;1999.90;999.90;;;0.90;99.90;;;;;;5035355;28;20030;-78
2023/01/31 05:59:15;;;;;;;1999.90;999.90;;;0.90;99.90;;;;;;5033596;28;20057;-78
2023/01/31 06:01:41;;;;;;;1999.90;999.90;;;0.80;99.90;;;;;;5035401;28;20116;-77
2023/01/31 06:04:06;;;;;;;1999.90;999.90;;;0.80;99.90;;;;;;5034904;28;20046;-78
2023/01/31 06:06:32;;;;;;;1999.90;999.90;;;0.80;99.90;;;;;;5033223;28;20497;-78
2023/01/31 06:08:57;;;;;;;1999.90;999.90;;;0.90;99.90;;;;;;5034452;28;20078;-77
2023/01/31 06:11:24;;;;;;;1999.90;999.90;;;0.80;99.90;;;;;;5034960;28;20072;-78
2023/01/31 06:13:49;;;;;;;1999.90;999.90;;;0.80;99.90;;;;;;5035506;28;20038;-78
2023/01/31 06:16:15;;;;;;;1999.90;999.90;;;0.80;99.90;;;;;;5036189;28;20412;-78
2023/01/31 06:18:41;;;;;;;1999.90;999.90;;;0.70;99.90;;;;;;5036102;28;20405;-78
2023/01/31 06:21:06;;;;;;;1999.90;999.90;;;0.80;99.90;;;;;;5035944;28;20041;-77
2023/01/31 06:23:33;;;;;;;1999.90;999.90;;;0.70;99.90;;;;;;5033964;28;20395;-78
2023/01/31 06:25:59;;;;;;;1999.90;999.90;;;0.60;99.90;;;;;;5035113;28;20518;-77
2023/01/31 06:28:25;;;;;;;1999.90;999.90;;;0.70;99.90;;;;;;5034295;28;20100;-77
2023/01/31 06:30:50;;;;;;;1999.90;999.90;;;0.70;99.90;;;;;;5036209;28;20034;-78
2023/01/31 06:33:17;;;;;;;1999.90;999.90;;;0.60;99.90;;;;;;5035470;28;20038;-78
2023/01/31 06:35:42;;;;;;;1999.90;999.90;;;0.60;99.90;;;;;;5035262;28;20488;-78
2023/01/31 06:38:08;;;;;;;1999.90;999.90;;;0.60;99.90;;;;;;5034302;28;20038;-77
2023/01/31 06:40:35;;;;;;;1999.90;999.90;;;0.50;99.90;;;;;;5033700;28;20109;-78
2023/01/31 06:43:01;;;;;;;1999.90;999.90;;;0.40;99.90;;;;;;5035667;28;20104;-77
2023/01/31 06:45:26;;;;;;;1999.90;999.90;;;0.30;99.90;;;;;;5034011;28;20038;-77
2023/01/31 06:47:52;;;;;;;1999.90;999.90;;;0.40;99.90;;;;;;5034428;28;20045;-79
2023/01/31 06:50:18;;;;;;;1999.90;999.90;;;0.30;99.90;;;;;;5036077;28;20101;-77
2023/01/31 06:52:43;;;;;;;1999.90;999.90;;;0.30;99.90;;;;;;5038142;28;20029;-77
2023/01/31 06:55:09;;;;;;;1999.90;999.90;;;0.50;99.90;;;;;;5042264;28;20034;-77
2023/01/31 06:57:35;;;;;;;1999.90;999.90;;;0.50;99.90;;;;;;5036582;28;20038;-76
2023/01/31 07:00:01;;;;;;;1999.90;999.90;;;0.50;99.90;;;;;;5036382;28;20087;-76
2023/01/31 07:02:26;;;;;;;1999.90;999.90;;;0.50;99.90;;;;;;5036087;28;20045;-78
2023/01/31 07:04:52;;;;;;;1999.90;999.90;;;0.50;99.90;;;;;;5038378;28;20041;-78
2023/01/31 07:07:17;;;;;;;1999.90;999.90;;;0.50;99.90;;;;;;5037338;28;20063;-79
2023/01/31 07:09:43;;;;;;;1999.90;999.90;;;0.50;99.90;;;;;;5059184;22;20126;-80
2023/01/31 07:12:09;;;;;;;1999.90;999.90;;;0.50;99.90;;;;;;5015645;28;20479;-79
2023/01/31 07:14:34;;;;;;;1999.90;999.90;;;0.60;99.90;;;;;;5015596;28;20411;-79
2023/01/31 07:17:00;;;;;;;1999.90;999.90;;;0.60;99.90;;;;;;5017123;28;20035;-79
2023/01/31 07:19:26;;;;;;;1999.90;999.90;;;0.60;99.90;;;;;;5017555;28;20428;-79
2023/01/31 07:21:51;;;;;;;1999.90;999.90;;;0.70;99.90;;;;;;5018368;28;20109;-81
2023/01/31 07:24:17;;;;;;;1999.90;999.90;;;0.70;99.90;;;;;;5016077;28;20042;-80
2023/01/31 07:26:43;;;;;;;1999.90;999.90;;;0.80;99.90;;;;;;5017701;28;20498;-80
2023/01/31 07:29:08;;;;;;;1999.90;999.90;;;0.90;99.90;;;;;;5017624;28;20041;-78
2023/01/31 07:31:34;;;;;;;1999.90;999.90;;;1.10;99.90;;;;;;5016926;28;20038;-79
2023/01/31 07:34:00;;;;;;;1999.90;999.90;;;1.30;99.90;;;;;;5015349;28;20046;-80
2023/01/31 07:36:25;;;;;;;1999.90;999.90;;;1.50;99.90;;;;;;5017125;28;20030;-80
2023/01/31 07:38:56;;;;;;;1999.90;999.90;;;1.60;99.90;;;;;;5015432;28;20038;-80
2023/01/31 07:41:22;;;;;;;1999.90;999.90;;;1.70;99.90;;;;;;5019203;28;20031;-80
2023/01/31 07:43:48;;;;;;;1999.90;999.90;;;1.80;99.90;;;;;;5017133;28;20085;-81
2023/01/31 07:46:13;;;;;;;1999.90;999.90;;;1.90;99.90;;;;;;5003227;28;20110;-82
2023/01/31 07:48:39;;;;;;;1999.90;999.90;;;2.00;99.90;;;;;;5016870;28;20038;-81
2023/01/31 07:51:05;;;;;;;1999.90;999.90;;;2.10;99.90;;;;;;5016172;28;20072;-81
2023/01/31 07:53:33;;;;;;;1999.90;999.90;;;2.10;99.90;;;;;;5015211;28;20069;-81
2023/01/31 07:56:25;;;;;;;1999.90;999.90;;;2.20;99.90;;;;;;5015463;28;20058;-81
2023/01/31 07:58:50;;;;;;;1999.90;999.90;;;2.30;99.90;;;;;;5016035;28;20039;-82
2023/01/31 08:04:11;;;;;;;1999.90;999.90;;;2.50;99.90;;;;;;5015954;28;20070;-82
2023/01/31 08:06:39;;;;;;;1999.90;999.90;;;2.60;99.90;;;;;;5014990;28;20030;-82
2023/01/31 08:09:04;;;;;;;1999.90;999.90;;;2.60;99.90;;;;;;5015323;28;20038;-83
2023/01/31 08:11:30;;;;;;;1999.90;999.90;;;2.70;99.90;;;;;;5014736;28;20476;-82
2023/01/31 08:13:56;;;;;;;1999.90;999.90;;;2.70;99.90;;;;;;5015331;28;20038;-82
2023/01/31 08:16:21;;;;;;;1999.90;999.90;;;2.80;99.90;;;;;;5015319;28;20074;-82
2023/01/31 08:18:47;;;;;;;1999.90;999.90;;;2.90;99.90;;;;;;5018289;28;20034;-82
2023/01/31 08:21:14;;;;;;;1999.90;999.90;;;2.80;99.90;;;;;;5010888;28;20034;-82
2023/01/31 08:23:40;;;;;;;1999.90;999.90;;;2.80;99.90;;;;;;5010057;28;20043;-82
2023/01/31 08:26:11;;;;;;;1999.90;999.90;;;2.80;99.90;;;;;;5022335;28;20057;-82
2023/01/31 08:28:38;;;;;;;1999.90;999.90;;;2.70;99.90;;;;;;5006427;28;20099;-83
2023/01/31 08:31:05;;;;;;;1999.90;999.90;;;2.70;99.90;;;;;;5015032;28;20031;-83
2023/01/31 08:33:30;;;;;;;1999.90;999.90;;;2.70;99.90;;;;;;5006396;28;20046;-83
2023/01/31 08:35:56;;;;;;;1999.90;999.90;;;2.70;99.90;;;;;;5002827;28;20026;-84
2023/01/31 08:38:22;;;;;;;1999.90;999.90;;;2.70;99.90;;;;;;5016104;28;20069;-82
2023/01/31 08:40:49;;;;;;;1999.90;999.90;;;2.70;99.90;;;;;;5017413;28;20034;-83
2023/01/31 08:43:14;;;;;;;1999.90;999.90;;;2.70;99.90;;;;;;5015291;28;20046;-83
2023/01/31 08:45:40;;;;;;;1999.90;999.90;;;2.80;99.90;;;;;;5015723;28;20366;-83
2023/01/31 08:48:05;;;;;;;1999.90;999.90;;;2.80;99.90;;;;;;5016633;28;20085;-80
2023/01/31 08:50:31;;;;;;;1999.90;999.90;;;2.80;99.90;;;;;;5014824;28;20077;-82
2023/01/31 08:53:00;;;;;;;1999.90;999.90;;;2.70;99.90;;;;;;5015050;28;20075;-83
2023/01/31 08:55:26;;;;;;;1999.90;999.90;;;2.80;99.90;;;;;;5015160;28;20098;-82
2023/01/31 08:57:53;;;;;;;1999.90;999.90;;;2.90;99.90;;;;;;5016749;28;20045;-83
2023/01/31 09:00:19;;;;;;;1999.90;999.90;;;3.10;99.90;;;;;;5015274;28;20093;-81
2023/01/31 09:02:54;;;;;;;1999.90;999.90;;;3.30;99.90;;;;;;5015409;28;20038;-79
2023/01/31 09:05:20;;;;;;;1999.90;999.90;;;3.50;99.90;;;;;;5016633;28;20073;-82
2023/01/31 09:07:46;;;;;;;1999.90;999.90;;;3.70;99.90;;;;;;5016176;28;20456;-82
2023/01/31 09:10:11;;;;;;;1999.90;999.90;;;3.80;99.90;;;;;;5017270;28;20061;-81
2023/01/31 09:12:37;;;;;;;1999.90;999.90;;;3.70;99.90;;;;;;5018011;28;20053;-82
2023/01/31 09:15:03;;;;;;;1999.90;999.90;;;3.70;99.90;;;;;;5015109;28;20391;-81
2023/01/31 09:17:29;;;;;;;1999.90;999.90;;;3.70;99.90;;;;;;5015198;28;20038;-81
2023/01/31 09:19:55;;;;;;;1999.90;999.90;;;3.90;99.90;;;;;;5015379;28;20038;-82
2023/01/31 09:22:21;;;;;;;1999.90;999.90;;;4.10;99.90;;;;;;5015889;28;20034;-80
2023/01/31 09:24:47;;;;;;;1999.90;999.90;;;4.10;99.90;;;;;;5014954;28;20008;-83
2023/01/31 09:27:12;;;;;;;1999.90;999.90;;;4.00;99.90;;;;;;5015329;28;20118;-80
2023/01/31 09:29:38;;;;;;;1999.90;999.90;;;3.90;99.90;;;;;;5017316;28;20038;-82
2023/01/31 09:32:04;;;;;;;1999.90;999.90;;;3.90;99.90;;;;;;5015875;28;20034;-82
2023/01/31 09:34:30;;;;;;;1999.90;999.90;;;3.80;99.90;;;;;;5016732;28;20050;-84
2023/01/31 09:36:56;;;;;;;1999.90;999.90;;;3.70;99.90;;;;;;5016764;28;20026;-83
2023/01/31 09:39:23;;;;;;;1999.90;999.90;;;3.70;99.90;;;;;;5016957;28;20080;-83
2023/01/31 09:41:56;;;;;;;1999.90;999.90;;;3.80;99.90;;;;;;5015844;28;20085;-83
2023/01/31 09:44:30;;;;;;;1999.90;999.90;;;3.90;99.90;;;;;;5015287;28;20070;-83
2023/01/31 09:47:09;;;;;;;1999.90;999.90;;;3.90;99.90;;;;;;5017360;28;20117;-83
2023/01/31 09:49:49;;;;;;;1999.90;999.90;;;4.00;99.90;;;;;;5013654;28;20038;-83
2023/01/31 09:52:15;;;;;;;1999.90;999.90;;;4.10;99.90;;;;;;5013772;28;20034;-83
2023/01/31 09:54:40;;;;;;;1999.90;999.90;;;4.00;99.90;;;;;;5014957;28;20038;-83
2023/01/31 09:57:24;;;;;;;1999.90;999.90;;;4.10;99.90;;;;;;5014768;28;20547;-83
2023/01/31 09:59:59;;;;;;;1999.90;999.90;;;4.20;99.90;;;;;;5014444;28;20046;-83
2023/01/31 10:02:27;;;;;;;1999.90;999.90;;;4.20;99.90;;;;;;5015659;28;20048;-83
2023/01/31 10:05:20;;;;;;;1999.90;999.90;;;4.40;99.90;;;;;;5013967;28;20038;-83
2023/01/31 10:07:59;;;;;;;1999.90;999.90;;;4.40;99.90;;;;;;5014200;28;20388;-83
2023/01/31 10:10:49;;;;;;;1999.90;999.90;;;4.50;99.90;;;;;;5014341;28;20265;-83
2023/01/31 10:13:33;;;;;;;1999.90;999.90;;;4.60;99.90;;;;;;5014731;28;20037;-83
2023/01/31 10:16:08;;;;;;;1999.90;999.90;;;4.50;99.90;;;;;;5015726;28;20514;-83
2023/01/31 10:18:40;;;;;;;1999.90;999.90;;;4.50;99.90;;;;;;5015614;28;20110;-81
2023/01/31 10:21:12;;;;;;;1999.90;999.90;;;4.80;99.90;;;;;;5013868;28;20073;-82
2023/01/31 10:23:49;;;;;;;1999.90;999.90;;;5.10;99.90;;;;;;5015394;28;20050;-83
2023/01/31 10:26:38;;;;;;;1999.90;999.90;;;4.90;99.90;;;;;;5009977;28;20038;-86
2023/01/31 10:29:27;;;;;;;1999.90;999.90;;;4.80;99.90;;;;;;5008992;28;20064;-82
2023/01/31 10:32:13;;;;;;;1999.90;999.90;;;4.90;99.90;;;;;;5007995;28;20500;-83
2023/01/31 10:35:11;;;;;;;1999.90;999.90;;;4.90;99.90;;;;;;5007845;28;20041;-81
2023/01/31 10:37:50;;;;;;;1999.90;999.90;;;5.00;99.90;;;;;;5016218;28;20074;-81
2023/01/31 10:40:21;;;;;;;1999.90;999.90;;;5.00;99.90;;;;;;5018361;28;20034;-82
2023/01/31 10:42:59;;;;;;;1999.90;999.90;;;5.00;99.90;;;;;;5013193;28;20108;-85
2023/01/31 10:45:29;;;;;;;1999.90;999.90;;;5.00;99.90;;;;;;5011722;28;20035;-84
2023/01/31 10:48:16;;;;;;;1999.90;999.90;;;4.90;99.90;;;;;;5006817;28;20065;-80
2023/01/31 10:51:11;;;;;;;1999.90;999.90;;;4.80;99.90;;;;;;5008908;28;20182;-85
2023/01/31 10:53:53;;;;;;;1999.90;999.90;;;4.70;99.90;;;;;;5007447;28;20034;-84
2023/01/31 10:56:37;;;;;;;1999.90;999.90;;;4.70;99.90;;;;;;5015635;28;20038;-86
2023/01/31 10:59:46;;;;;;;1999.90;999.90;;;4.70;99.90;;;;;;5019447;28;20077;-80
2023/01/31 11:02:24;;;;;;;1999.90;999.90;;;4.70;99.90;;;;;;5016425;28;20027;-87
2023/01/31 11:04:52;;;;;;;1999.90;999.90;;;4.60;99.90;;;;;;5011183;28;20074;-85
2023/01/31 11:07:19;;;;;;;1999.90;999.90;;;4.50;99.90;;;;;;5017859;28;20037;-88
2023/01/31 11:09:52;;;;;;;1999.90;999.90;;;4.50;99.90;;;;;;5015723;28;20038;-79
2023/01/31 11:12:19;;;;;;;1999.90;999.90;;;4.50;99.90;;;;;;5015801;28;20034;-86
2023/01/31 11:15:02;;;;;;;1999.90;999.90;;;4.50;99.90;;;;;;5006734;28;20481;-85
2023/01/31 11:17:28;;;;;;;1999.90;999.90;;;4.40;99.90;;;;;;5039498;28;20038;-86
2023/01/31 11:19:56;;;;;;;1999.90;999.90;;;4.50;99.90;;;;;;5004824;28;20035;-86
2023/01/31 11:22:25;;;;;;;1999.90;999.90;;;4.40;99.90;;;;;;4997349;28;20045;-85
2023/01/31 11:24:53;;;;;;;1999.90;999.90;;;4.40;99.90;;;;;;4996145;28;20512;-85
2023/01/31 11:27:30;;;;;;;1999.90;999.90;;;4.40;99.90;;;;;;4996165;28;20031;-80
2023/01/31 11:29:58;;;;;;;1999.90;999.90;;;4.40;99.90;;;;;;5000640;28;20027;-81
2023/01/31 11:32:27;;;;;;;1999.90;999.90;;;4.50;99.90;;;;;;4997161;28;20041;-79
2023/01/31 11:34:58;;;;;;;1999.90;999.90;;;4.70;99.90;;;;;;4996661;28;20035;-82
2023/01/31 11:37:24;;;;;;;1999.90;999.90;;;4.90;99.90;;;;;;4996034;28;20114;-84
2023/01/31 11:40:00;;;;;;;1999.90;999.90;;;4.90;99.90;;;;;;4996122;28;20122;-81
2023/01/31 11:42:26;;;;;;;1999.90;999.90;;;5.00;99.90;;;;;;4995956;28;20031;-81
2023/01/31 11:45:02;;;;;;;1999.90;999.90;;;5.00;99.90;;;;;;4995557;28;20035;-79
2023/01/31 11:47:38;;;;;;;1999.90;999.90;;;5.00;99.90;;;;;;4995697;28;20448;-80
2023/01/31 11:50:04;;;;;;;1999.90;999.90;;;5.20;99.90;;;;;;4996927;28;20110;-81
2023/01/31 11:52:32;;;;;;;1999.90;999.90;;;5.30;99.90;;;;;;4996799;28;20041;-81
2023/01/31 11:55:15;;;;;;;1999.90;999.90;;;5.50;99.90;;;;;;4995080;28;20066;-81
2023/01/31 11:57:41;;;;;;;1999.90;999.90;;;5.60;99.90;;;;;;4995446;28;20093;-80
2023/01/31 12:00:24;;;;;;;1999.90;999.90;;;5.70;99.90;;;;;;4997681;28;20038;-81
2023/01/31 12:03:14;;;;;;;1999.90;999.90;;;5.70;99.90;;;;;;4997988;28;20129;-82
2023/01/31 12:05:48;;;;;;;1999.90;999.90;;;5.80;99.90;;;;;;4999547;28;20433;-80
2023/01/31 12:08:36;;;;;;;1999.90;999.90;;;5.80;99.90;;;;;;4999117;28;20509;-81
2023/01/31 12:11:20;;;;;;;1999.90;999.90;;;5.90;99.90;;;;;;4997296;28;20063;-80
2023/01/31 12:13:48;;;;;;;1999.90;999.90;;;5.90;99.90;;;;;;4999114;28;20178;-80
2023/01/31 12:16:18;;;;;;;1999.90;999.90;;;6.00;99.90;;;;;;4997015;28;20126;-81
2023/01/31 12:18:50;;;;;;;1999.90;999.90;;;6.10;99.90;;;;;;4997257;28;20039;-81
2023/01/31 12:21:25;;;;;;;1999.90;999.90;;;6.20;99.90;;;;;;5003421;28;20066;-83
2023/01/31 12:24:15;;;;;;;1999.90;999.90;;;6.10;99.90;;;;;;5011338;28;20046;-78
2023/01/31 12:26:47;;;;;;;1999.90;999.90;;;6.10;99.90;;;;;;5019044;28;20030;-75
2023/01/31 12:29:37;;;;;;;1999.90;999.90;;;6.00;99.90;;;;;;5001872;28;20033;-82